sensor_id;sensor_type;location;lat;lon;timestamp;temperature;humidity
18729;DHT22;9493;51.884;5.188;2022-12-24T00:02:21;9.80;99.90
18729;DHT22;9493;51.884;5.188;2022-12-24T00:04:48;9.70;99.90
18729;DHT22;9493;51.884;5.188;2022-12-24T00:07:15;9.80;99.90
18729;DHT22;9493;51.884;5.188;2022-12-24T00:09:43;9.70;99.90
18729;DHT22;9493;51.884;5.188;2022-12-24T00:12:09;9.70;99.90
18729;DHT22;9493;51.884;5.188;2022-12-24T00:14:36;9.70;99.90
18729;DHT22;9493;51.884;5.188;2022-12-24T00:17:03;9.60;99.90
18729;DHT22;9493;51.884;5.188;2022-12-24T00:19:30;9.60;99.90
18729;DHT22;9493;51.884;5.188;2022-12-24T00:21:57;9.60;99.90
18729;DHT22;9493;51.884;5.188;2022-12-24T00:24:24;9.40;99.90
18729;DHT22;9493;51.884;5.188;2022-12-24T00:26:52;9.50;99.90
18729;DHT22;9493;51.884;5.188;2022-12-24T00:29:18;9.60;99.90
18729;DHT22;9493;51.884;5.188;2022-12-24T00:31:45;9.50;99.90
18729;DHT22;9493;51.884;5.188;2022-12-24T00:34:12;9.50;99.90
18729;DHT22;9493;51.884;5.188;2022-12-24T00:36:39;9.50;99.90
18729;DHT22;9493;51.884;5.188;2022-12-24T00:39:06;9.40;99.90
18729;DHT22;9493;51.884;5.188;2022-12-24T00:41:32;9.50;99.90
18729;DHT22;9493;51.884;5.188;2022-12-24T00:44:02;9.50;99.90
18729;DHT22;9493;51.884;5.188;2022-12-24T00:46:31;9.50;99.90
18729;DHT22;9493;51.884;5.188;2022-12-24T00:48:59;9.40;99.90
18729;DHT22;9493;51.884;5.188;2022-12-24T00:51:26;9.40;99.90
18729;DHT22;9493;51.884;5.188;2022-12-24T00:53:53;9.40;99.90
18729;DHT22;9493;51.884;5.188;2022-12-24T00:56:20;9.40;99.90
18729;DHT22;9493;51.884;5.188;2022-12-24T00:58:47;9.30;99.90
18729;DHT22;9493;51.884;5.188;2022-12-24T01:01:15;9.40;99.90
18729;DHT22;9493;51.884;5.188;2022-12-24T01:03:42;9.40;99.90
18729;DHT22;9493;51.884;5.188;2022-12-24T01:06:11;9.40;99.90
18729;DHT22;9493;51.884;5.188;2022-12-24T01:08:37;9.30;99.90
18729;DHT22;9493;51.884;5.188;2022-12-24T01:11:05;9.30;99.90
18729;DHT22;9493;51.884;5.188;2022-12-24T01:13:32;9.30;99.90
18729;DHT22;9493;51.884;5.188;2022-12-24T01:15:59;9.20;99.90
18729;DHT22;9493;51.884;5.188;2022-12-24T01:18:28;9.20;99.90
18729;DHT22;9493;51.884;5.188;2022-12-24T01:20:56;9.20;99.90
18729;DHT22;9493;51.884;5.188;2022-12-24T01:23:23;9.10;99.90
18729;DHT22;9493;51.884;5.188;2022-12-24T01:25:50;9.10;99.90
18729;DHT22;9493;51.884;5.188;2022-12-24T01:28:17;9.10;99.90
18729;DHT22;9493;51.884;5.188;2022-12-24T01:30:44;9.10;99.90
18729;DHT22;9493;51.884;5.188;2022-12-24T01:33:11;9.00;99.90
18729;DHT22;9493;51.884;5.188;2022-12-24T01:35:40;9.00;99.90
18729;DHT22;9493;51.884;5.188;2022-12-24T01:38:07;9.00;99.90
18729;DHT22;9493;51.884;5.188;2022-12-24T01:40:33;8.90;99.90
18729;DHT22;9493;51.884;5.188;2022-12-24T01:43:19;9.00;99.90
18729;DHT22;9493;51.884;5.188;2022-12-24T01:45:51;9.00;99.90
18729;DHT22;9493;51.884;5.188;2022-12-24T01:48:27;8.90;99.90
18729;DHT22;9493;51.884;5.188;2022-12-24T01:51:02;8.90;99.90
18729;DHT22;9493;51.884;5.188;2022-12-24T01:53:31;8.90;99.90
18729;DHT22;9493;51.884;5.188;2022-12-24T01:56:00;8.90;99.90
18729;DHT22;9493;51.884;5.188;2022-12-24T01:58:27;8.90;99.90
18729;DHT22;9493;51.884;5.188;2022-12-24T02:00:54;8.80;99.90
18729;DHT22;9493;51.884;5.188;2022-12-24T02:03:21;8.80;99.90
18729;DHT22;9493;51.884;5.188;2022-12-24T02:05:50;8.80;99.90
18729;DHT22;9493;51.884;5.188;2022-12-24T02:08:19;8.90;99.90
18729;DHT22;9493;51.884;5.188;2022-12-24T02:10:47;8.90;99.90
18729;DHT22;9493;51.884;5.188;2022-12-24T02:13:17;8.80;99.90
18729;DHT22;9493;51.884;5.188;2022-12-24T02:15:58;8.80;99.90
18729;DHT22;9493;51.884;5.188;2022-12-24T02:18:32;8.80;99.90
18729;DHT22;9493;51.884;5.188;2022-12-24T02:24:21;8.70;99.90
18729;DHT22;9493;51.884;5.188;2022-12-24T02:27:11;8.70;99.90
18729;DHT22;9493;51.884;5.188;2022-12-24T02:30:04;8.70;99.90
18729;DHT22;9493;51.884;5.188;2022-12-24T02:32:36;8.70;99.90
18729;DHT22;9493;51.884;5.188;2022-12-24T02:35:10;8.60;99.90
18729;DHT22;9493;51.884;5.188;2022-12-24T02:37:40;8.60;99.90
18729;DHT22;9493;51.884;5.188;2022-12-24T02:40:12;8.60;99.90
18729;DHT22;9493;51.884;5.188;2022-12-24T02:42:43;8.60;99.90
18729;DHT22;9493;51.884;5.188;2022-12-24T02:45:15;8.70;99.90
18729;DHT22;9493;51.884;5.188;2022-12-24T02:47:43;8.60;99.90
18729;DHT22;9493;51.884;5.188;2022-12-24T02:50:13;8.60;99.90
18729;DHT22;9493;51.884;5.188;2022-12-24T02:52:42;8.60;99.90
18729;DHT22;9493;51.884;5.188;2022-12-24T02:55:11;8.60;99.90
18729;DHT22;9493;51.884;5.188;2022-12-24T02:57:51;8.60;99.90
18729;DHT22;9493;51.884;5.188;2022-12-24T03:00:24;8.60;99.90
18729;DHT22;9493;51.884;5.188;2022-12-24T03:03:04;8.60;99.90
18729;DHT22;9493;51.884;5.188;2022-12-24T03:05:38;8.80;99.90
18729;DHT22;9493;51.884;5.188;2022-12-24T03:08:13;8.70;99.90
18729;DHT22;9493;51.884;5.188;2022-12-24T03:10:46;8.70;99.90
18729;DHT22;9493;51.884;5.188;2022-12-24T03:13:18;8.80;99.90
18729;DHT22;9493;51.884;5.188;2022-12-24T03:15:49;8.90;99.90
18729;DHT22;9493;51.884;5.188;2022-12-24T03:18:19;8.90;99.90
18729;DHT22;9493;51.884;5.188;2022-12-24T03:20:51;9.00;99.90
18729;DHT22;9493;51.884;5.188;2022-12-24T03:23:20;9.00;99.90
18729;DHT22;9493;51.884;5.188;2022-12-24T03:25:46;9.10;99.90
18729;DHT22;9493;51.884;5.188;2022-12-24T03:28:15;9.10;99.90
18729;DHT22;9493;51.884;5.188;2022-12-24T03:30:45;9.10;99.90
18729;DHT22;9493;51.884;5.188;2022-12-24T03:33:15;9.20;99.90
18729;DHT22;9493;51.884;5.188;2022-12-24T03:35:42;9.20;99.90
18729;DHT22;9493;51.884;5.188;2022-12-24T03:38:09;9.30;99.90
18729;DHT22;9493;51.884;5.188;2022-12-24T03:40:35;9.30;99.90
18729;DHT22;9493;51.884;5.188;2022-12-24T03:43:02;9.40;99.90
18729;DHT22;9493;51.884;5.188;2022-12-24T03:45:29;9.40;99.90
18729;DHT22;9493;51.884;5.188;2022-12-24T03:47:56;9.40;99.90
18729;DHT22;9493;51.884;5.188;2022-12-24T03:50:24;9.50;99.90
18729;DHT22;9493;51.884;5.188;2022-12-24T03:52:51;9.50;99.90
18729;DHT22;9493;51.884;5.188;2022-12-24T03:55:18;9.50;99.90
18729;DHT22;9493;51.884;5.188;2022-12-24T03:57:44;9.60;99.90
18729;DHT22;9493;51.884;5.188;2022-12-24T04:00:12;9.50;99.90
18729;DHT22;9493;51.884;5.188;2022-12-24T04:02:39;9.60;99.90
18729;DHT22;9493;51.884;5.188;2022-12-24T04:05:07;9.50;99.90
18729;DHT22;9493;51.884;5.188;2022-12-24T04:07:35;9.50;99.90
18729;DHT22;9493;51.884;5.188;2022-12-24T04:10:02;9.60;99.90
18729;DHT22;9493;51.884;5.188;2022-12-24T04:12:29;9.60;99.90
18729;DHT22;9493;51.884;5.188;2022-12-24T04:14:56;9.70;99.90
18729;DHT22;9493;51.884;5.188;2022-12-24T04:17:22;9.70;99.90
18729;DHT22;9493;51.884;5.188;2022-12-24T04:19:49;9.70;99.90
18729;DHT22;9493;51.884;5.188;2022-12-24T04:22:16;9.70;99.90
18729;DHT22;9493;51.884;5.188;2022-12-24T04:24:44;9.80;99.90
18729;DHT22;9493;51.884;5.188;2022-12-24T04:27:12;9.80;99.90
18729;DHT22;9493;51.884;5.188;2022-12-24T04:29:39;9.80;99.90
18729;DHT22;9493;51.884;5.188;2022-12-24T04:32:06;9.90;99.90
18729;DHT22;9493;51.884;5.188;2022-12-24T04:34:34;9.90;99.90
18729;DHT22;9493;51.884;5.188;2022-12-24T04:37:02;9.90;99.90
18729;DHT22;9493;51.884;5.188;2022-12-24T04:39:29;10.00;99.90
18729;DHT22;9493;51.884;5.188;2022-12-24T04:41:57;10.00;99.90
18729;DHT22;9493;51.884;5.188;2022-12-24T04:44:24;10.10;99.90
18729;DHT22;9493;51.884;5.188;2022-12-24T04:46:51;10.10;99.90
18729;DHT22;9493;51.884;5.188;2022-12-24T04:49:17;10.00;99.90
18729;DHT22;9493;51.884;5.188;2022-12-24T04:51:44;10.10;99.90
18729;DHT22;9493;51.884;5.188;2022-12-24T04:54:11;10.30;99.90
18729;DHT22;9493;51.884;5.188;2022-12-24T04:56:38;10.10;99.90
18729;DHT22;9493;51.884;5.188;2022-12-24T04:59:06;10.00;99.90
18729;DHT22;9493;51.884;5.188;2022-12-24T05:01:33;10.10;99.90
18729;DHT22;9493;51.884;5.188;2022-12-24T05:03:59;10.00;99.90
18729;DHT22;9493;51.884;5.188;2022-12-24T05:06:30;10.10;99.90
18729;DHT22;9493;51.884;5.188;2022-12-24T05:08:57;10.10;99.90
18729;DHT22;9493;51.884;5.188;2022-12-24T05:11:25;10.10;99.90
18729;DHT22;9493;51.884;5.188;2022-12-24T05:13:51;10.20;99.90
18729;DHT22;9493;51.884;5.188;2022-12-24T05:16:21;10.20;99.90
18729;DHT22;9493;51.884;5.188;2022-12-24T05:18:49;10.20;99.90
18729;DHT22;9493;51.884;5.188;2022-12-24T05:21:17;10.20;99.90
18729;DHT22;9493;51.884;5.188;2022-12-24T05:23:45;10.20;99.90
18729;DHT22;9493;51.884;5.188;2022-12-24T05:26:32;10.20;99.90
18729;DHT22;9493;51.884;5.188;2022-12-24T05:29:00;10.20;99.90
18729;DHT22;9493;51.884;5.188;2022-12-24T05:31:30;10.30;99.90
18729;DHT22;9493;51.884;5.188;2022-12-24T05:33:57;10.20;99.90
18729;DHT22;9493;51.884;5.188;2022-12-24T05:36:24;10.20;99.90
18729;DHT22;9493;51.884;5.188;2022-12-24T05:38:51;10.20;99.90
18729;DHT22;9493;51.884;5.188;2022-12-24T05:41:18;10.30;99.90
18729;DHT22;9493;51.884;5.188;2022-12-24T05:43:45;10.20;99.90
18729;DHT22;9493;51.884;5.188;2022-12-24T05:46:15;10.10;99.90
18729;DHT22;9493;51.884;5.188;2022-12-24T05:48:44;10.20;99.90
18729;DHT22;9493;51.884;5.188;2022-12-24T05:51:12;10.20;99.90
18729;DHT22;9493;51.884;5.188;2022-12-24T05:53:40;10.20;99.90
18729;DHT22;9493;51.884;5.188;2022-12-24T05:56:09;10.20;99.90
18729;DHT22;9493;51.884;5.188;2022-12-24T05:58:36;10.20;99.90
18729;DHT22;9493;51.884;5.188;2022-12-24T06:01:04;10.20;99.90
18729;DHT22;9493;51.884;5.188;2022-12-24T06:03:31;10.20;99.90
18729;DHT22;9493;51.884;5.188;2022-12-24T06:06:01;10.20;99.90
18729;DHT22;9493;51.884;5.188;2022-12-24T06:08:29;10.20;99.90
18729;DHT22;9493;51.884;5.188;2022-12-24T06:10:56;10.20;99.90
18729;DHT22;9493;51.884;5.188;2022-12-24T06:13:23;10.50;99.90
18729;DHT22;9493;51.884;5.188;2022-12-24T06:15:52;10.20;99.90
18729;DHT22;9493;51.884;5.188;2022-12-24T06:18:19;10.20;99.90
18729;DHT22;9493;51.884;5.188;2022-12-24T06:20:49;10.30;99.90
18729;DHT22;9493;51.884;5.188;2022-12-24T06:23:18;10.20;99.90
18729;DHT22;9493;51.884;5.188;2022-12-24T06:25:44;10.40;99.90
18729;DHT22;9493;51.884;5.188;2022-12-24T06:28:11;10.40;99.90
18729;DHT22;9493;51.884;5.188;2022-12-24T06:30:38;10.30;99.90
18729;DHT22;9493;51.884;5.188;2022-12-24T06:33:05;10.20;99.90
18729;DHT22;9493;51.884;5.188;2022-12-24T06:35:33;10.30;99.90
18729;DHT22;9493;51.884;5.188;2022-12-24T06:37:59;10.20;99.90
18729;DHT22;9493;51.884;5.188;2022-12-24T06:40:28;10.20;99.90
18729;DHT22;9493;51.884;5.188;2022-12-24T06:42:54;10.50;99.90
18729;DHT22;9493;51.884;5.188;2022-12-24T06:45:21;10.20;99.90
18729;DHT22;9493;51.884;5.188;2022-12-24T06:47:48;10.20;99.90
18729;DHT22;9493;51.884;5.188;2022-12-24T06:50:15;10.10;99.90
18729;DHT22;9493;51.884;5.188;2022-12-24T06:52:41;10.10;99.90
18729;DHT22;9493;51.884;5.188;2022-12-24T06:55:09;10.10;99.90
18729;DHT22;9493;51.884;5.188;2022-12-24T06:57:37;10.10;99.90
18729;DHT22;9493;51.884;5.188;2022-12-24T07:00:06;10.00;99.90
18729;DHT22;9493;51.884;5.188;2022-12-24T07:02:33;10.10;99.90
18729;DHT22;9493;51.884;5.188;2022-12-24T07:05:00;10.00;99.90
18729;DHT22;9493;51.884;5.188;2022-12-24T07:07:27;10.00;99.90
18729;DHT22;9493;51.884;5.188;2022-12-24T07:09:55;10.00;99.90
18729;DHT22;9493;51.884;5.188;2022-12-24T07:12:21;9.90;99.90
18729;DHT22;9493;51.884;5.188;2022-12-24T07:14:50;9.90;99.90
18729;DHT22;9493;51.884;5.188;2022-12-24T07:17:16;9.80;99.90
18729;DHT22;9493;51.884;5.188;2022-12-24T07:19:43;9.80;99.90
18729;DHT22;9493;51.884;5.188;2022-12-24T07:22:10;9.70;99.90
18729;DHT22;9493;51.884;5.188;2022-12-24T07:24:36;9.70;99.90
18729;DHT22;9493;51.884;5.188;2022-12-24T07:27:03;9.60;99.90
18729;DHT22;9493;51.884;5.188;2022-12-24T07:29:30;9.60;99.90
18729;DHT22;9493;51.884;5.188;2022-12-24T07:31:58;9.50;99.90
18729;DHT22;9493;51.884;5.188;2022-12-24T07:34:25;9.50;99.90
18729;DHT22;9493;51.884;5.188;2022-12-24T07:36:52;9.50;99.90
18729;DHT22;9493;51.884;5.188;2022-12-24T07:39:18;9.50;99.90
18729;DHT22;9493;51.884;5.188;2022-12-24T07:41:45;9.50;99.90
18729;DHT22;9493;51.884;5.188;2022-12-24T07:44:13;9.50;99.90
18729;DHT22;9493;51.884;5.188;2022-12-24T07:46:40;9.60;99.90
18729;DHT22;9493;51.884;5.188;2022-12-24T07:49:08;9.60;99.90
18729;DHT22;9493;51.884;5.188;2022-12-24T07:51:36;9.50;99.90
18729;DHT22;9493;51.884;5.188;2022-12-24T07:54:03;9.70;99.90
18729;DHT22;9493;51.884;5.188;2022-12-24T07:56:30;9.70;99.90
18729;DHT22;9493;51.884;5.188;2022-12-24T07:58:57;9.70;99.90
18729;DHT22;9493;51.884;5.188;2022-12-24T08:01:23;9.80;99.90
18729;DHT22;9493;51.884;5.188;2022-12-24T08:03:50;9.80;99.90
18729;DHT22;9493;51.884;5.188;2022-12-24T08:06:20;9.80;99.90
18729;DHT22;9493;51.884;5.188;2022-12-24T08:08:47;9.80;99.90
18729;DHT22;9493;51.884;5.188;2022-12-24T08:11:14;9.90;99.90
18729;DHT22;9493;51.884;5.188;2022-12-24T08:13:41;9.80;99.90
18729;DHT22;9493;51.884;5.188;2022-12-24T08:16:07;9.90;99.90
18729;DHT22;9493;51.884;5.188;2022-12-24T08:18:34;9.90;99.90
18729;DHT22;9493;51.884;5.188;2022-12-24T08:21:01;9.90;99.90
18729;DHT22;9493;51.884;5.188;2022-12-24T08:23:29;9.90;99.90
18729;DHT22;9493;51.884;5.188;2022-12-24T08:25:56;9.80;99.90
18729;DHT22;9493;51.884;5.188;2022-12-24T08:28:23;9.90;99.90
18729;DHT22;9493;51.884;5.188;2022-12-24T08:30:50;9.80;99.90
18729;DHT22;9493;51.884;5.188;2022-12-24T08:33:18;9.90;99.90
18729;DHT22;9493;51.884;5.188;2022-12-24T08:38:18;9.80;99.90
18729;DHT22;9493;51.884;5.188;2022-12-24T08:40:47;9.80;99.90
18729;DHT22;9493;51.884;5.188;2022-12-24T08:43:14;9.80;99.90
18729;DHT22;9493;51.884;5.188;2022-12-24T08:45:41;9.80;99.90
18729;DHT22;9493;51.884;5.188;2022-12-24T08:48:09;9.80;99.90
18729;DHT22;9493;51.884;5.188;2022-12-24T08:50:38;9.90;99.90
18729;DHT22;9493;51.884;5.188;2022-12-24T08:53:05;10.20;99.90
18729;DHT22;9493;51.884;5.188;2022-12-24T08:55:32;10.40;99.90
18729;DHT22;9493;51.884;5.188;2022-12-24T08:58:00;10.30;99.90
18729;DHT22;9493;51.884;5.188;2022-12-24T09:00:28;10.20;99.90
18729;DHT22;9493;51.884;5.188;2022-12-24T09:02:55;10.10;99.90
18729;DHT22;9493;51.884;5.188;2022-12-24T09:05:22;10.10;99.90
18729;DHT22;9493;51.884;5.188;2022-12-24T09:07:50;10.20;99.90
18729;DHT22;9493;51.884;5.188;2022-12-24T09:10:17;10.60;99.90
18729;DHT22;9493;51.884;5.188;2022-12-24T09:12:44;11.00;99.90
18729;DHT22;9493;51.884;5.188;2022-12-24T09:53:16;10.50;99.90
18729;DHT22;9493;51.884;5.188;2022-12-24T09:55:46;10.60;99.90
18729;DHT22;9493;51.884;5.188;2022-12-24T09:58:19;10.60;99.90
18729;DHT22;9493;51.884;5.188;2022-12-24T10:00:51;10.80;99.90
18729;DHT22;9493;51.884;5.188;2022-12-24T10:03:19;11.00;99.90
18729;DHT22;9493;51.884;5.188;2022-12-24T10:05:53;11.00;99.90
18729;DHT22;9493;51.884;5.188;2022-12-24T10:08:28;10.90;99.90
18729;DHT22;9493;51.884;5.188;2022-12-24T10:11:01;10.90;99.90
18729;DHT22;9493;51.884;5.188;2022-12-24T10:13:40;10.90;99.90
18729;DHT22;9493;51.884;5.188;2022-12-24T10:16:13;11.30;99.90
18729;DHT22;9493;51.884;5.188;2022-12-24T10:18:53;11.40;99.90
18729;DHT22;9493;51.884;5.188;2022-12-24T10:21:29;11.40;99.90
18729;DHT22;9493;51.884;5.188;2022-12-24T10:24:05;11.40;99.90
18729;DHT22;9493;51.884;5.188;2022-12-24T10:26:36;11.30;99.90
18729;DHT22;9493;51.884;5.188;2022-12-24T10:29:10;11.20;99.90
18729;DHT22;9493;51.884;5.188;2022-12-24T10:31:40;11.20;99.90
18729;DHT22;9493;51.884;5.188;2022-12-24T10:34:12;11.20;99.90
18729;DHT22;9493;51.884;5.188;2022-12-24T10:36:40;11.10;99.90
18729;DHT22;9493;51.884;5.188;2022-12-24T10:39:15;11.10;99.90
18729;DHT22;9493;51.884;5.188;2022-12-24T10:41:43;11.20;99.90
18729;DHT22;9493;51.884;5.188;2022-12-24T10:44:14;11.20;99.90
18729;DHT22;9493;51.884;5.188;2022-12-24T10:46:42;11.30;99.90
18729;DHT22;9493;51.884;5.188;2022-12-24T10:49:13;11.40;99.90
18729;DHT22;9493;51.884;5.188;2022-12-24T10:51:44;11.30;99.90
18729;DHT22;9493;51.884;5.188;2022-12-24T10:54:15;11.40;99.90
18729;DHT22;9493;51.884;5.188;2022-12-24T10:56:46;11.40;99.90
18729;DHT22;9493;51.884;5.188;2022-12-24T10:59:25;11.30;99.90
18729;DHT22;9493;51.884;5.188;2022-12-24T11:01:54;11.30;99.90
18729;DHT22;9493;51.884;5.188;2022-12-24T11:04:22;11.20;99.90
18729;DHT22;9493;51.884;5.188;2022-12-24T11:06:54;11.10;99.90
18729;DHT22;9493;51.884;5.188;2022-12-24T11:09:25;11.10;99.90
18729;DHT22;9493;51.884;5.188;2022-12-24T11:11:53;11.10;99.90
18729;DHT22;9493;51.884;5.188;2022-12-24T11:14:21;11.20;99.90
18729;DHT22;9493;51.884;5.188;2022-12-24T11:16:50;11.00;99.90
18729;DHT22;9493;51.884;5.188;2022-12-24T11:19:19;11.00;99.90
18729;DHT22;9493;51.884;5.188;2022-12-24T11:21:57;11.10;99.90
18729;DHT22;9493;51.884;5.188;2022-12-24T11:24:28;11.00;99.90
18729;DHT22;9493;51.884;5.188;2022-12-24T11:27:26;11.10;99.90
18729;DHT22;9493;51.884;5.188;2022-12-24T11:30:24;11.10;99.90
18729;DHT22;9493;51.884;5.188;2022-12-24T11:33:15;11.20;99.90
18729;DHT22;9493;51.884;5.188;2022-12-24T11:35:47;11.20;99.90
18729;DHT22;9493;51.884;5.188;2022-12-24T11:38:18;11.30;99.90
18729;DHT22;9493;51.884;5.188;2022-12-24T11:40:48;11.40;99.90
18729;DHT22;9493;51.884;5.188;2022-12-24T11:43:19;11.50;99.90
18729;DHT22;9493;51.884;5.188;2022-12-24T11:45:51;11.50;99.90
18729;DHT22;9493;51.884;5.188;2022-12-24T11:48:26;11.60;99.90
18729;DHT22;9493;51.884;5.188;2022-12-24T11:50:58;11.40;99.90
18729;DHT22;9493;51.884;5.188;2022-12-24T11:53:30;11.40;99.90
18729;DHT22;9493;51.884;5.188;2022-12-24T11:56:04;11.30;99.90
18729;DHT22;9493;51.884;5.188;2022-12-24T11:58:36;11.30;99.90
18729;DHT22;9493;51.884;5.188;2022-12-24T12:01:11;11.40;99.90
18729;DHT22;9493;51.884;5.188;2022-12-24T12:03:42;11.50;99.90
18729;DHT22;9493;51.884;5.188;2022-12-24T12:06:25;11.50;99.90
18729;DHT22;9493;51.884;5.188;2022-12-24T12:08:55;11.40;99.90
18729;DHT22;9493;51.884;5.188;2022-12-24T12:11:24;11.40;99.90
18729;DHT22;9493;51.884;5.188;2022-12-24T12:13:54;11.30;99.90
18729;DHT22;9493;51.884;5.188;2022-12-24T12:16:24;11.30;99.90
18729;DHT22;9493;51.884;5.188;2022-12-24T12:18:57;11.40;99.90
18729;DHT22;9493;51.884;5.188;2022-12-24T12:21:29;11.10;99.90
18729;DHT22;9493;51.884;5.188;2022-12-24T12:24:02;11.40;99.90
18729;DHT22;9493;51.884;5.188;2022-12-24T12:26:30;11.70;99.90
18729;DHT22;9493;51.884;5.188;2022-12-24T12:29:03;11.70;99.90
18729;DHT22;9493;51.884;5.188;2022-12-24T12:31:34;11.70;99.90
18729;DHT22;9493;51.884;5.188;2022-12-24T12:34:04;11.40;99.90
18729;DHT22;9493;51.884;5.188;2022-12-24T12:36:39;11.50;99.90
18729;DHT22;9493;51.884;5.188;2022-12-24T12:39:08;11.70;99.90
18729;DHT22;9493;51.884;5.188;2022-12-24T12:41:47;11.60;99.90
18729;DHT22;9493;51.884;5.188;2022-12-24T12:44:37;11.50;99.90
18729;DHT22;9493;51.884;5.188;2022-12-24T12:47:19;11.50;99.90
18729;DHT22;9493;51.884;5.188;2022-12-24T12:49:56;11.50;99.90
18729;DHT22;9493;51.884;5.188;2022-12-24T12:52:34;11.60;99.90
18729;DHT22;9493;51.884;5.188;2022-12-24T12:55:18;11.90;99.90
18729;DHT22;9493;51.884;5.188;2022-12-24T12:57:48;12.10;99.90
18729;DHT22;9493;51.884;5.188;2022-12-24T13:00:18;12.30;99.90
18729;DHT22;9493;51.884;5.188;2022-12-24T13:02:59;12.50;99.90
18729;DHT22;9493;51.884;5.188;2022-12-24T13:05:41;12.50;99.90
18729;DHT22;9493;51.884;5.188;2022-12-24T13:08:35;12.50;99.90
18729;DHT22;9493;51.884;5.188;2022-12-24T13:11:22;12.50;99.90
18729;DHT22;9493;51.884;5.188;2022-12-24T13:14:03;12.20;99.90
18729;DHT22;9493;51.884;5.188;2022-12-24T13:16:52;12.00;99.90
18729;DHT22;9493;51.884;5.188;2022-12-24T13:19:36;12.10;99.90
18729;DHT22;9493;51.884;5.188;2022-12-24T13:22:13;12.10;99.90
18729;DHT22;9493;51.884;5.188;2022-12-24T13:24:46;12.20;99.90
18729;DHT22;9493;51.884;5.188;2022-12-24T13:27:17;12.20;99.90
18729;DHT22;9493;51.884;5.188;2022-12-24T13:29:52;12.00;99.90
18729;DHT22;9493;51.884;5.188;2022-12-24T13:35:33;11.50;99.90
18729;DHT22;9493;51.884;5.188;2022-12-24T13:41:36;11.30;99.90
18729;DHT22;9493;51.884;5.188;2022-12-24T13:44:24;11.20;99.90
18729;DHT22;9493;51.884;5.188;2022-12-24T13:47:02;11.30;99.90
18729;DHT22;9493;51.884;5.188;2022-12-24T13:49:36;11.30;99.90
18729;DHT22;9493;51.884;5.188;2022-12-24T13:52:24;11.20;99.90
18729;DHT22;9493;51.884;5.188;2022-12-24T13:55:11;11.10;99.90
18729;DHT22;9493;51.884;5.188;2022-12-24T13:57:40;11.60;99.90
18729;DHT22;9493;51.884;5.188;2022-12-24T14:00:26;11.40;99.90
18729;DHT22;9493;51.884;5.188;2022-12-24T14:02:55;11.40;99.90
18729;DHT22;9493;51.884;5.188;2022-12-24T14:05:26;11.70;99.90
18729;DHT22;9493;51.884;5.188;2022-12-24T14:07:58;11.80;99.90
18729;DHT22;9493;51.884;5.188;2022-12-24T14:10:29;12.10;99.90
18729;DHT22;9493;51.884;5.188;2022-12-24T14:12:57;12.00;99.90
18729;DHT22;9493;51.884;5.188;2022-12-24T14:18:32;12.70;99.90
18729;DHT22;9493;51.884;5.188;2022-12-24T14:21:01;13.20;99.90
18729;DHT22;9493;51.884;5.188;2022-12-24T14:23:36;13.10;99.90
18729;DHT22;9493;51.884;5.188;2022-12-24T14:26:11;13.40;99.90
18729;DHT22;9493;51.884;5.188;2022-12-24T14:28:41;13.10;99.90
18729;DHT22;9493;51.884;5.188;2022-12-24T14:31:13;13.40;99.90
18729;DHT22;9493;51.884;5.188;2022-12-24T14:33:41;13.00;99.90
18729;DHT22;9493;51.884;5.188;2022-12-24T14:36:08;12.20;99.90
18729;DHT22;9493;51.884;5.188;2022-12-24T14:38:40;11.60;99.90
18729;DHT22;9493;51.884;5.188;2022-12-24T14:41:18;11.20;99.90
18729;DHT22;9493;51.884;5.188;2022-12-24T14:43:52;11.10;99.90
18729;DHT22;9493;51.884;5.188;2022-12-24T14:46:28;10.90;99.90
18729;DHT22;9493;51.884;5.188;2022-12-24T14:48:58;10.90;99.90
18729;DHT22;9493;51.884;5.188;2022-12-24T14:51:32;10.90;99.90
18729;DHT22;9493;51.884;5.188;2022-12-24T14:54:25;10.80;99.90
18729;DHT22;9493;51.884;5.188;2022-12-24T14:57:11;10.70;99.90
18729;DHT22;9493;51.884;5.188;2022-12-24T14:59:43;10.60;99.90
18729;DHT22;9493;51.884;5.188;2022-12-24T15:05:18;10.50;99.90
18729;DHT22;9493;51.884;5.188;2022-12-24T15:07:49;10.40;99.90
18729;DHT22;9493;51.884;5.188;2022-12-24T15:10:28;10.30;99.90
18729;DHT22;9493;51.884;5.188;2022-12-24T15:13:00;10.20;99.90
18729;DHT22;9493;51.884;5.188;2022-12-24T15:15:27;10.20;99.90
18729;DHT22;9493;51.884;5.188;2022-12-24T15:17:55;10.10;99.90
18729;DHT22;9493;51.884;5.188;2022-12-24T15:20:27;10.10;99.90
18729;DHT22;9493;51.884;5.188;2022-12-24T15:22:57;10.00;99.90
18729;DHT22;9493;51.884;5.188;2022-12-24T15:25:28;10.00;99.90
18729;DHT22;9493;51.884;5.188;2022-12-24T15:27:56;9.90;99.90
18729;DHT22;9493;51.884;5.188;2022-12-24T15:30:25;9.90;99.90
18729;DHT22;9493;51.884;5.188;2022-12-24T15:32:54;9.80;99.90
18729;DHT22;9493;51.884;5.188;2022-12-24T15:35:34;9.80;99.90
18729;DHT22;9493;51.884;5.188;2022-12-24T15:38:05;9.80;99.90
18729;DHT22;9493;51.884;5.188;2022-12-24T15:40:37;9.80;99.90
18729;DHT22;9493;51.884;5.188;2022-12-24T15:43:05;9.70;99.90
18729;DHT22;9493;51.884;5.188;2022-12-24T15:45:42;9.70;99.90
18729;DHT22;9493;51.884;5.188;2022-12-24T15:48:11;9.60;99.90
18729;DHT22;9493;51.884;5.188;2022-12-24T15:50:43;9.40;99.90
18729;DHT22;9493;51.884;5.188;2022-12-24T15:53:12;9.40;99.90
18729;DHT22;9493;51.884;5.188;2022-12-24T15:55:43;9.40;99.90
18729;DHT22;9493;51.884;5.188;2022-12-24T15:58:16;9.30;99.90
18729;DHT22;9493;51.884;5.188;2022-12-24T16:00:43;9.20;99.90
18729;DHT22;9493;51.884;5.188;2022-12-24T16:03:11;9.10;99.90
18729;DHT22;9493;51.884;5.188;2022-12-24T16:05:43;9.00;99.90
18729;DHT22;9493;51.884;5.188;2022-12-24T16:08:24;8.90;99.90
18729;DHT22;9493;51.884;5.188;2022-12-24T16:11:16;8.80;99.90
18729;DHT22;9493;51.884;5.188;2022-12-24T16:13:56;8.70;99.90
18729;DHT22;9493;51.884;5.188;2022-12-24T16:16:31;8.70;99.90
18729;DHT22;9493;51.884;5.188;2022-12-24T16:19:00;8.60;99.90
18729;DHT22;9493;51.884;5.188;2022-12-24T16:21:30;8.60;99.90
18729;DHT22;9493;51.884;5.188;2022-12-24T16:24:03;8.60;99.90
18729;DHT22;9493;51.884;5.188;2022-12-24T16:26:32;8.60;99.90
18729;DHT22;9493;51.884;5.188;2022-12-24T16:28:59;8.70;99.90
18729;DHT22;9493;51.884;5.188;2022-12-24T16:31:29;8.60;99.90
18729;DHT22;9493;51.884;5.188;2022-12-24T16:33:58;8.60;99.90
18729;DHT22;9493;51.884;5.188;2022-12-24T16:36:26;8.70;99.90
18729;DHT22;9493;51.884;5.188;2022-12-24T16:38:52;8.70;99.90
18729;DHT22;9493;51.884;5.188;2022-12-24T16:41:38;8.60;99.90
18729;DHT22;9493;51.884;5.188;2022-12-24T16:44:19;8.60;99.90
18729;DHT22;9493;51.884;5.188;2022-12-24T16:46:45;8.50;99.90
18729;DHT22;9493;51.884;5.188;2022-12-24T16:49:15;8.60;99.90
18729;DHT22;9493;51.884;5.188;2022-12-24T16:51:42;8.60;99.90
18729;DHT22;9493;51.884;5.188;2022-12-24T16:54:10;8.50;99.90
18729;DHT22;9493;51.884;5.188;2022-12-24T16:56:39;8.50;99.90
18729;DHT22;9493;51.884;5.188;2022-12-24T16:59:06;8.50;99.90
18729;DHT22;9493;51.884;5.188;2022-12-24T17:01:32;8.40;99.90
18729;DHT22;9493;51.884;5.188;2022-12-24T17:03:59;8.40;99.90
18729;DHT22;9493;51.884;5.188;2022-12-24T17:06:26;8.40;99.90
18729;DHT22;9493;51.884;5.188;2022-12-24T17:08:53;8.30;99.90
18729;DHT22;9493;51.884;5.188;2022-12-24T17:11:21;8.20;99.90
18729;DHT22;9493;51.884;5.188;2022-12-24T17:13:50;8.10;99.90